Time;durP1;ratioP1;P1;durP2;ratioP2;P2;SDS_P1;SDS_P2;PMS_P1;PMS_P2;Temp;Humidity;BMP_temperature;BMP_pressure;BME280_temperature;BME280_humidity;BME280_pressure;Samples;Min_cycle;Max_cycle;Signal;HPM_P1;HPM_P2
2023/07/05 00:01:42;;;;;;;6.60;5.20;;;;;;;26.02;51.31;100450.91;106522;1288;67634;-86
2023/07/05 00:04:08;;;;;;;6.60;5.70;;;;;;;26.02;51.28;100446.94;106411;1288;67595;-87
2023/07/05 00:06:34;;;;;;;6.60;5.40;;;;;;;26.02;51.24;100445.80;106448;1288;67700;-86
2023/07/05 00:08:59;;;;;;;5.90;4.70;;;;;;;26.02;51.32;100447.50;106525;1288;67590;-86
2023/07/05 00:11:25;;;;;;;6.00;4.70;;;;;;;26.03;51.39;100444.14;106540;1288;67504;-86
2023/07/05 00:13:50;;;;;;;6.20;4.90;;;;;;;26.02;51.38;100445.34;106526;1288;67128;-86
2023/07/05 00:16:16;;;;;;;5.50;4.80;;;;;;;26.02;51.41;100450.75;106504;1288;67013;-87
2023/07/05 00:18:50;;;;;;;6.00;5.20;;;;;;;26.02;51.45;100448.74;106529;1288;67017;-91
2023/07/05 00:21:16;;;;;;;6.80;5.40;;;;;;;26.02;51.47;100448.55;106476;1288;67672;-86
2023/07/05 00:23:44;;;;;;;7.50;5.20;;;;;;;26.01;51.36;100447.69;106480;1288;67574;-86
2023/07/05 00:26:09;;;;;;;8.30;5.00;;;;;;;26.01;51.50;100448.36;106483;1288;72361;-86
2023/07/05 00:28:35;;;;;;;5.50;4.70;;;;;;;26.01;51.31;100448.35;106498;1288;67745;-86
2023/07/05 00:31:01;;;;;;;5.70;5.10;;;;;;;26.01;51.41;100447.08;106518;1288;67561;-87
2023/07/05 00:33:27;;;;;;;6.00;5.00;;;;;;;26.01;51.48;100444.65;106493;1288;67700;-86
2023/07/05 00:35:53;;;;;;;5.70;4.80;;;;;;;26.02;51.52;100450.52;106333;1288;67525;-86
2023/07/05 00:38:19;;;;;;;5.90;4.70;;;;;;;26.01;51.58;100453.69;106510;1288;67722;-86
2023/07/05 00:40:45;;;;;;;5.90;5.10;;;;;;;26.00;51.69;100457.23;106491;1288;67701;-86
2023/07/05 00:43:11;;;;;;;6.40;4.80;;;;;;;26.00;51.50;100453.08;106517;1288;67647;-86
2023/07/05 00:46:07;;;;;;;6.80;5.10;;;;;;;26.00;51.55;100454.36;106496;1288;67615;-87
2023/07/05 00:48:56;;;;;;;6.40;5.40;;;;;;;25.99;51.59;100457.23;106441;1288;67713;-89
2023/07/05 00:51:27;;;;;;;5.90;5.20;;;;;;;25.98;51.60;100454.15;106460;1288;67496;-86
2023/07/05 00:54:01;;;;;;;5.70;5.10;;;;;;;25.98;51.61;100454.31;106502;1288;67720;-86
2023/07/05 00:56:29;;;;;;;5.70;5.00;;;;;;;25.97;51.73;100449.42;106522;1288;67583;-86
2023/07/05 00:58:54;;;;;;;5.70;5.00;;;;;;;25.98;51.74;100447.92;106507;1288;67639;-86
2023/07/05 01:01:20;;;;;;;6.70;5.20;;;;;;;25.98;51.72;100446.22;106349;1288;67699;-86
2023/07/05 01:03:50;;;;;;;7.20;5.20;;;;;;;25.98;51.70;100442.36;106472;1288;67028;-86
2023/07/05 01:06:16;;;;;;;5.80;5.10;;;;;;;25.97;51.56;100440.47;106460;1288;67685;-86
2023/07/05 01:08:42;;;;;;;7.00;5.10;;;;;;;25.97;51.50;100438.08;106394;1288;67663;-86
2023/07/05 01:11:41;;;;;;;6.30;5.00;;;;;;;25.97;51.71;100437.35;106564;1288;68721;-86
2023/07/05 01:14:21;;;;;;;8.70;5.30;;;;;;;25.97;51.85;100435.89;106331;1288;67058;-86
2023/07/05 01:17:08;;;;;;;6.50;5.00;;;;;;;25.97;51.65;100438.71;106277;1288;67610;-86
2023/07/05 01:19:59;;;;;;;6.30;4.90;;;;;;;25.96;51.68;100436.81;106487;1288;67772;-86
2023/07/05 01:22:33;;;;;;;5.80;4.90;;;;;;;25.96;51.75;100435.23;106505;1288;67688;-86
2023/07/05 01:25:27;;;;;;;6.70;5.40;;;;;;;25.95;51.83;100431.77;106377;1288;75336;-87
2023/07/05 01:28:24;;;;;;;6.40;5.20;;;;;;;25.95;51.69;100430.19;106354;1288;67484;-87
2023/07/05 01:31:26;;;;;;;6.50;5.40;;;;;;;25.94;51.76;100431.55;106495;1288;67123;-87
2023/07/05 01:33:58;;;;;;;6.60;5.10;;;;;;;25.94;51.74;100435.32;106511;1288;67613;-86
2023/07/05 01:36:38;;;;;;;8.10;5.60;;;;;;;25.94;51.77;100435.46;106372;1288;66945;-91
2023/07/05 01:39:05;;;;;;;6.40;5.40;;;;;;;25.93;51.89;100433.58;106439;1288;74654;-86
2023/07/05 01:41:31;;;;;;;6.90;5.40;;;;;;;25.94;51.83;100433.87;106503;1288;67818;-86
2023/07/05 01:43:57;;;;;;;7.40;5.50;;;;;;;25.94;51.73;100435.73;106512;1288;67676;-86
2023/07/05 01:46:26;;;;;;;6.60;4.90;;;;;;;25.94;51.80;100433.80;106282;1288;67710;-86
2023/07/05 01:49:01;;;;;;;6.00;5.10;;;;;;;25.93;51.83;100430.73;106561;1288;67618;-86
2023/07/05 01:52:00;;;;;;;6.20;5.30;;;;;;;25.94;51.93;100430.61;106541;1288;74401;-93
2023/07/05 01:54:41;;;;;;;5.80;5.20;;;;;;;25.92;51.80;100428.08;106307;1288;67583;-92
2023/07/05 01:57:09;;;;;;;6.90;5.30;;;;;;;25.92;51.68;100429.36;106268;1288;67689;-87
2023/07/05 01:59:39;;;;;;;5.40;4.90;;;;;;;25.93;51.70;100434.92;106341;1288;67032;-86
2023/07/05 02:02:04;;;;;;;5.30;4.80;;;;;;;25.93;51.91;100436.66;106487;1288;67410;-87
2023/07/05 02:04:32;;;;;;;8.10;5.30;;;;;;;25.93;51.96;100436.21;106500;1288;67695;-87
2023/07/05 02:06:57;;;;;;;6.60;5.20;;;;;;;25.93;52.04;100437.23;106350;1288;66978;-87
2023/07/05 02:09:37;;;;;;;6.50;5.50;;;;;;;25.93;51.94;100438.23;106513;1288;67701;-93
2023/07/05 02:12:05;;;;;;;6.00;5.30;;;;;;;25.93;51.84;100433.89;106468;1288;67639;-86
2023/07/05 02:14:30;;;;;;;8.20;5.70;;;;;;;25.92;51.97;100434.98;106521;1288;67707;-87
2023/07/05 02:16:56;;;;;;;8.90;5.30;;;;;;;25.92;52.03;100433.86;106529;1288;67138;-87
2023/07/05 02:19:21;;;;;;;9.50;5.60;;;;;;;25.92;51.95;100438.44;106492;1288;67243;-87
2023/07/05 02:21:47;;;;;;;6.70;4.80;;;;;;;25.93;51.79;100436.32;106475;1288;67629;-86
2023/07/05 02:26:46;;;;;;;6.60;5.50;;;;;;;25.92;51.93;100435.71;106439;1288;72110;-87
2023/07/05 02:29:11;;;;;;;8.50;5.50;;;;;;;25.92;52.01;100432.88;106474;1288;66965;-87
2023/07/05 02:31:37;;;;;;;7.50;5.40;;;;;;;25.92;52.04;100434.89;106490;1288;67826;-87
2023/07/05 02:34:03;;;;;;;7.10;5.80;;;;;;;25.92;51.88;100435.51;106472;1288;67652;-87
2023/07/05 02:36:28;;;;;;;6.60;5.20;;;;;;;25.91;52.04;100439.34;106537;1288;67019;-87
2023/07/05 02:38:54;;;;;;;7.50;5.70;;;;;;;25.91;51.80;100435.58;106432;1288;67602;-87
2023/07/05 02:41:20;;;;;;;8.50;5.50;;;;;;;25.92;51.93;100437.78;106438;1288;67495;-87
2023/07/05 02:43:45;;;;;;;8.40;5.50;;;;;;;25.91;52.04;100434.48;106495;1288;67815;-87
2023/07/05 02:46:11;;;;;;;7.90;5.40;;;;;;;25.91;52.04;100435.16;106478;1288;67215;-87
2023/07/05 02:48:36;;;;;;;6.70;5.60;;;;;;;25.91;52.04;100437.29;106511;1288;68095;-86
2023/07/05 02:53:42;;;;;;;6.90;5.50;;;;;;;25.90;52.05;100439.05;106289;1290;67610;-87
2023/07/05 02:56:07;;;;;;;8.20;5.70;;;;;;;25.90;52.10;100441.21;106339;1290;67579;-87
2023/07/05 02:58:33;;;;;;;8.00;5.40;;;;;;;25.90;51.93;100442.30;106299;1290;67517;-86
2023/07/05 03:00:58;;;;;;;9.20;5.70;;;;;;;25.90;52.19;100444.11;106299;1290;67747;-87
2023/07/05 03:03:26;;;;;;;9.50;5.60;;;;;;;25.90;52.18;100443.17;106382;1290;67694;-87
2023/07/05 03:05:58;;;;;;;8.90;5.60;;;;;;;25.90;52.13;100443.64;106298;1290;67527;-87
2023/07/05 03:08:25;;;;;;;10.90;5.90;;;;;;;25.90;52.06;100445.50;106319;1290;74295;-87
2023/07/05 03:10:54;;;;;;;8.30;6.20;;;;;;;25.89;52.09;100443.04;106295;1290;68071;-87
2023/07/05 03:13:25;;;;;;;12.00;8.20;;;;;;;25.88;52.12;100441.83;106181;1291;67534;-87
2023/07/05 03:15:51;;;;;;;17.40;7.90;;;;;;;25.86;52.02;100442.02;106254;1291;68110;-86
2023/07/05 03:18:16;;;;;;;13.40;7.20;;;;;;;25.83;52.27;100438.73;106257;1291;68499;-87
2023/07/05 03:20:45;;;;;;;22.80;7.80;;;;;;;25.80;52.32;100433.40;106241;1291;67819;-86
2023/07/05 03:23:10;;;;;;;17.20;7.20;;;;;;;25.75;52.47;100433.34;106113;1291;67753;-86
2023/07/05 03:25:36;;;;;;;10.50;6.90;;;;;;;25.71;52.66;100433.63;106231;1291;67634;-87
2023/07/05 03:28:02;;;;;;;17.70;7.00;;;;;;;25.70;52.75;100430.44;106272;1291;67905;-87
2023/07/05 03:30:27;;;;;;;13.90;7.40;;;;;;;25.70;53.16;100434.21;106230;1293;67119;-86
2023/07/05 03:35:34;;;;;;;11.40;6.20;;;;;;;25.66;53.75;100441.86;106125;1292;67762;-87
2023/07/05 03:37:59;;;;;;;15.80;6.80;;;;;;;25.64;53.89;100442.15;106192;1292;67585;-87
2023/07/05 03:40:25;;;;;;;14.20;7.50;;;;;;;25.64;53.77;100438.15;106208;1292;67657;-87
2023/07/05 03:42:50;;;;;;;9.70;6.50;;;;;;;25.61;54.01;100439.89;106193;1292;68030;-87
2023/07/05 03:45:16;;;;;;;13.90;7.80;;;;;;;25.59;54.02;100443.03;106237;1292;67012;-87
2023/07/05 03:47:42;;;;;;;13.90;7.40;;;;;;;25.58;53.91;100447.80;106173;1292;67678;-87
2023/07/05 03:50:08;;;;;;;16.00;7.50;;;;;;;25.55;53.97;100444.81;106170;1292;67781;-87
2023/07/05 03:52:33;;;;;;;11.90;7.00;;;;;;;25.52;54.08;100443.23;105991;1293;67080;-87
2023/07/05 03:54:59;;;;;;;14.70;7.00;;;;;;;25.48;54.20;100442.95;106156;1292;67568;-87
2023/07/05 03:57:24;;;;;;;15.20;7.60;;;;;;;25.45;54.20;100443.89;106167;1293;67556;-87
2023/07/05 04:02:23;;;;;;;13.40;7.10;;;;;;;25.38;54.40;100442.33;106248;1290;72902;-87
2023/07/05 04:04:49;;;;;;;11.50;7.00;;;;;;;25.34;54.28;100439.30;106285;1290;67647;-87
2023/07/05 04:07:14;;;;;;;13.80;7.10;;;;;;;25.33;54.38;100441.38;106298;1290;67789;-87
2023/07/05 04:09:40;;;;;;;14.30;6.70;;;;;;;25.32;54.27;100441.25;106463;1291;67619;-87
2023/07/05 04:12:06;;;;;;;10.20;6.40;;;;;;;25.34;54.50;100439.52;106474;1291;66976;-88
2023/07/05 04:14:32;;;;;;;12.40;7.10;;;;;;;25.36;54.75;100440.56;106254;1291;67788;-87
2023/07/05 04:16:58;;;;;;;11.60;6.90;;;;;;;25.36;54.92;100447.14;106239;1291;67627;-87
2023/07/05 04:19:24;;;;;;;10.60;6.90;;;;;;;25.37;54.80;100444.36;106263;1291;68151;-87
2023/07/05 04:21:49;;;;;;;11.90;7.10;;;;;;;25.39;54.78;100439.47;106244;1291;67887;-87
2023/07/05 04:24:15;;;;;;;10.30;6.70;;;;;;;25.42;54.79;100441.70;106236;1291;67728;-87
2023/07/05 04:26:40;;;;;;;13.90;7.30;;;;;;;25.42;54.63;100438.19;106239;1291;67903;-87
2023/07/05 04:29:06;;;;;;;10.40;7.10;;;;;;;25.42;54.76;100437.56;106129;1291;67624;-87
2023/07/05 04:31:32;;;;;;;9.70;6.70;;;;;;;25.43;54.73;100441.21;106254;1291;67692;-86
2023/07/05 04:33:58;;;;;;;13.10;7.20;;;;;;;25.44;54.54;100444.86;106321;1291;67030;-87
2023/07/05 04:36:26;;;;;;;17.90;7.30;;;;;;;25.45;54.59;100443.36;106178;1291;67536;-87
2023/07/05 04:38:56;;;;;;;11.70;7.50;;;;;;;25.44;54.47;100438.84;106183;1291;67780;-93
2023/07/05 04:41:21;;;;;;;10.50;7.10;;;;;;;25.43;54.65;100441.02;106281;1291;67601;-86
2023/07/05 04:43:47;;;;;;;16.80;7.70;;;;;;;25.42;54.59;100442.05;106189;1291;67041;-87
2023/07/05 04:46:12;;;;;;;13.40;7.90;;;;;;;25.41;54.69;100446.77;106255;1291;67582;-87
2023/07/05 04:48:38;;;;;;;19.40;8.10;;;;;;;25.40;54.88;100448.52;106174;1291;66985;-86
2023/07/05 04:51:05;;;;;;;16.70;7.50;;;;;;;25.41;55.05;100460.42;106336;1291;67794;-85
2023/07/05 04:53:31;;;;;;;13.40;6.70;;;;;;;25.42;54.89;100457.66;106266;1290;67738;-87
2023/07/05 04:55:57;;;;;;;12.50;6.40;;;;;;;25.45;55.10;100453.66;106323;1291;67691;-86
2023/07/05 04:58:23;;;;;;;14.30;7.00;;;;;;;25.46;55.19;100455.91;106240;1290;67837;-87
2023/07/05 05:00:49;;;;;;;13.90;7.00;;;;;;;25.47;55.10;100457.64;106312;1291;67619;-87
2023/07/05 05:03:16;;;;;;;13.20;6.90;;;;;;;25.49;55.16;100455.17;106145;1291;67685;-87
2023/07/05 05:05:42;;;;;;;10.80;6.80;;;;;;;25.52;55.14;100456.10;106214;1291;67573;-87
2023/07/05 05:08:08;;;;;;;14.60;7.10;;;;;;;25.52;54.87;100460.31;106215;1290;67630;-86
2023/07/05 05:10:36;;;;;;;11.90;7.00;;;;;;;25.54;54.82;100460.55;106168;1291;67815;-87
2023/07/05 05:13:01;;;;;;;10.50;6.70;;;;;;;25.54;54.81;100463.23;106211;1290;67586;-87
2023/07/05 05:15:27;;;;;;;11.80;7.90;;;;;;;25.54;54.80;100465.28;106200;1290;68064;-87
2023/07/05 05:17:52;;;;;;;11.80;7.60;;;;;;;25.54;54.74;100466.27;106259;1291;67829;-87
2023/07/05 05:20:18;;;;;;;16.70;12.20;;;;;;;25.55;54.64;100465.21;106233;1290;67046;-87
2023/07/05 05:22:43;;;;;;;18.40;12.30;;;;;;;25.56;54.61;100466.03;106211;1290;67730;-87
2023/07/05 05:25:09;;;;;;;28.90;22.30;;;;;;;25.56;54.52;100465.61;106267;1290;67694;-87
2023/07/05 05:27:34;;;;;;;29.10;19.90;;;;;;;25.55;54.61;100467.53;106324;1290;67830;-87
2023/07/05 05:30:00;;;;;;;27.20;20.60;;;;;;;25.55;54.54;100472.78;106093;1290;310362;-87
2023/07/05 05:32:27;;;;;;;18.40;13.70;;;;;;;25.55;54.39;100472.31;106280;1290;67600;-87
2023/07/05 05:35:10;;;;;;;19.00;10.90;;;;;;;25.53;54.47;100471.31;106295;1290;68068;-87
2023/07/05 05:37:36;;;;;;;28.30;21.40;;;;;;;25.54;54.43;100471.20;106290;1290;67536;-87
2023/07/05 05:40:01;;;;;;;16.00;12.30;;;;;;;25.54;54.18;100472.48;106145;1291;67212;-87
2023/07/05 05:42:29;;;;;;;23.10;17.90;;;;;;;25.54;54.27;100475.38;106229;1290;67772;-87
2023/07/05 05:44:54;;;;;;;20.40;15.90;;;;;;;25.54;54.15;100480.62;106245;1291;67612;-87
2023/07/05 05:47:20;;;;;;;18.20;13.70;;;;;;;25.55;54.19;100480.52;106184;1290;67778;-86
2023/07/05 05:49:46;;;;;;;18.30;12.50;;;;;;;25.56;54.25;100482.88;106177;1291;67824;-87
2023/07/05 05:52:11;;;;;;;16.20;12.20;;;;;;;25.56;54.09;100484.39;106239;1291;67758;-86
2023/07/05 05:54:37;;;;;;;19.70;13.10;;;;;;;25.57;54.22;100486.76;106223;1291;67732;-86
2023/07/05 05:57:02;;;;;;;15.00;11.40;;;;;;;25.59;54.18;100488.90;106071;1289;67845;-87
2023/07/05 05:59:37;;;;;;;30.70;21.90;;;;;;;25.63;54.22;100494.06;106048;1291;67870;-92
2023/07/05 06:02:02;;;;;;;21.70;15.60;;;;;;;25.67;54.26;100498.80;106072;1289;74022;-86
2023/07/05 06:04:28;;;;;;;20.30;13.30;;;;;;;25.68;54.21;100499.38;106155;1291;67837;-87
2023/07/05 06:06:53;;;;;;;19.40;10.90;;;;;;;25.70;54.16;100503.22;106170;1291;67550;-86
2023/07/05 06:09:26;;;;;;;17.40;9.70;;;;;;;25.72;54.18;100503.89;106173;1291;68417;-87
2023/07/05 06:11:52;;;;;;;19.40;11.40;;;;;;;25.74;54.01;100505.51;106115;1291;67702;-86
2023/07/05 06:14:17;;;;;;;14.80;10.80;;;;;;;25.77;54.29;100504.27;106138;1292;68169;-86
2023/07/05 06:16:42;;;;;;;14.30;10.20;;;;;;;25.77;53.90;100510.81;106233;1290;67856;-86
2023/07/05 06:19:08;;;;;;;18.00;11.20;;;;;;;25.78;53.97;100511.04;106043;1291;67724;-87
2023/07/05 06:21:34;;;;;;;22.70;11.50;;;;;;;25.77;54.15;100515.07;106292;1291;67384;-87
2023/07/05 06:23:59;;;;;;;21.90;10.00;;;;;;;25.77;54.05;100511.63;106185;1290;68212;-86
2023/07/05 06:26:34;;;;;;;16.90;9.20;;;;;;;25.77;53.88;100511.60;106226;1291;67545;-92
2023/07/05 06:28:59;;;;;;;15.40;8.90;;;;;;;25.77;54.04;100508.54;106157;1291;67711;-86
2023/07/05 06:31:29;;;;;;;15.10;9.50;;;;;;;25.77;54.16;100509.81;106215;1290;67084;-86
2023/07/05 06:33:54;;;;;;;16.60;11.80;;;;;;;25.77;54.16;100507.40;106228;1290;67676;-86
2023/07/05 06:36:20;;;;;;;21.90;13.50;;;;;;;25.77;54.21;100509.36;106231;1290;67823;-87
2023/07/05 06:38:46;;;;;;;22.20;14.90;;;;;;;25.77;54.30;100509.93;106392;1290;67066;-87
2023/07/05 06:44:04;;;;;;;17.80;10.30;;;;;;;25.79;54.35;100511.54;105976;1288;546501;-87
2023/07/05 06:46:31;;;;;;;24.00;10.40;;;;;;;25.82;54.57;100512.58;106457;1288;67734;-87
2023/07/05 06:48:57;;;;;;;28.00;21.10;;;;;;;25.85;54.66;100510.23;106362;1288;75282;-87
2023/07/05 06:51:24;;;;;;;22.50;16.00;;;;;;;25.87;54.65;100508.64;106481;1288;67636;-87
2023/07/05 06:53:49;;;;;;;21.10;14.30;;;;;;;25.89;54.81;100508.77;106446;1287;67786;-87
2023/07/05 06:56:24;;;;;;;15.30;13.20;;;;;;;25.90;54.93;100510.23;106396;1288;67086;-91
2023/07/05 06:58:49;;;;;;;16.50;11.60;;;;;;;25.92;54.82;100509.79;106405;1288;67546;-87
2023/07/05 07:01:15;;;;;;;18.00;11.90;;;;;;;25.93;54.84;100512.80;106315;1289;67855;-87
2023/07/05 07:03:41;;;;;;;15.50;9.90;;;;;;;25.94;54.84;100509.60;106414;1288;67748;-86
2023/07/05 07:06:07;;;;;;;14.50;9.50;;;;;;;25.93;54.86;100509.81;106394;1288;67711;-88
2023/07/05 07:08:38;;;;;;;18.50;10.00;;;;;;;25.93;54.82;100510.80;106449;1288;67809;-88
2023/07/05 07:11:04;;;;;;;19.20;10.10;;;;;;;25.93;54.76;100511.16;106150;1291;67991;-89
2023/07/05 07:13:31;;;;;;;15.00;8.80;;;;;;;25.92;54.65;100510.81;106388;1289;68887;-88
2023/07/05 07:16:04;;;;;;;11.40;8.50;;;;;;;25.92;54.71;100509.33;106269;1286;68193;-89
2023/07/05 07:18:30;;;;;;;21.10;10.00;;;;;;;25.91;54.64;100514.50;106483;1288;67848;-89
2023/07/05 07:20:56;;;;;;;13.90;9.10;;;;;;;25.91;54.91;100521.77;106537;1288;67762;-89
2023/07/05 07:23:22;;;;;;;31.10;20.30;;;;;;;25.91;54.96;100521.04;106576;1287;67734;-88
2023/07/05 07:25:57;;;;;;;15.00;11.20;;;;;;;25.91;54.77;100523.45;106597;1287;67628;-89
2023/07/05 07:28:23;;;;;;;13.70;9.40;;;;;;;25.92;54.96;100527.22;106528;1287;67767;-89
2023/07/05 07:30:49;;;;;;;15.50;9.00;;;;;;;25.95;54.97;100526.59;106465;1285;67750;-89
2023/07/05 07:33:15;;;;;;;16.20;10.30;;;;;;;25.99;55.21;100531.29;106254;1289;67693;-88
2023/07/05 07:35:41;;;;;;;17.40;9.10;;;;;;;26.04;55.47;100523.67;106218;1288;67995;-88
2023/07/05 07:38:16;;;;;;;19.30;8.40;;;;;;;26.07;55.43;100525.52;106434;1290;67569;-89
2023/07/05 07:40:42;;;;;;;13.50;8.60;;;;;;;26.08;55.50;100523.73;106188;1291;68038;-88
2023/07/05 07:43:08;;;;;;;19.80;16.10;;;;;;;26.10;55.31;100520.46;106127;1291;67157;-88
2023/07/05 07:45:34;;;;;;;17.60;15.30;;;;;;;26.12;55.33;100520.70;106373;1287;67956;-88
2023/07/05 07:48:00;;;;;;;19.70;14.50;;;;;;;26.13;55.33;100520.16;106431;1288;67813;-88
2023/07/05 07:50:26;;;;;;;17.00;13.70;;;;;;;26.14;55.41;100519.37;106434;1288;67708;-88
2023/07/05 07:52:52;;;;;;;19.40;11.80;;;;;;;26.15;55.48;100521.27;106504;1288;67059;-88
2023/07/05 07:55:18;;;;;;;19.10;10.70;;;;;;;26.15;55.44;100521.42;106393;1289;67557;-88
2023/07/05 07:57:47;;;;;;;19.30;10.50;;;;;;;26.15;55.48;100524.41;106465;1288;67681;-88
2023/07/05 08:00:13;;;;;;;15.80;10.50;;;;;;;26.15;55.33;100521.98;106354;1289;74273;-88
2023/07/05 08:02:38;;;;;;;16.70;11.30;;;;;;;26.14;55.35;100517.98;106438;1289;67295;-86
2023/07/05 08:05:16;;;;;;;20.30;15.40;;;;;;;26.14;55.30;100519.11;106388;1289;67738;-91
2023/07/05 08:07:42;;;;;;;15.40;10.00;;;;;;;26.15;55.29;100519.20;106308;1291;67799;-88
2023/07/05 08:10:08;;;;;;;31.60;10.30;;;;;;;26.18;55.28;100518.20;106632;1289;67070;-87
2023/07/05 08:12:34;;;;;;;19.00;10.60;;;;;;;26.21;55.44;100519.80;106417;1290;68915;-88
2023/07/05 08:15:00;;;;;;;17.70;9.20;;;;;;;26.24;55.51;100518.73;106450;1287;67145;-89
2023/07/05 08:17:29;;;;;;;14.90;8.80;;;;;;;26.28;55.45;100520.00;106683;1286;67738;-88
2023/07/05 08:22:35;;;;;;;;;;;;;;;26.34;55.14;100522.57;106329;1291;66964;-87
2023/07/05 08:25:00;;;;;;;11.30;7.50;;;;;;;26.33;54.96;100523.31;106287;1290;67697;-87
2023/07/05 08:27:26;;;;;;;14.90;8.30;;;;;;;26.35;54.84;100525.07;106150;1291;67686;-87
2023/07/05 08:29:51;;;;;;;13.30;8.20;;;;;;;26.36;54.65;100521.38;106246;1291;67438;-88
2023/07/05 08:32:19;;;;;;;12.70;8.40;;;;;;;26.36;54.58;100524.63;106293;1291;67815;-88
2023/07/05 08:34:45;;;;;;;14.20;8.10;;;;;;;26.37;54.31;100525.81;106323;1290;74559;-88
2023/07/05 08:37:10;;;;;;;11.80;8.10;;;;;;;26.36;54.21;100525.34;106117;1291;67937;-87
2023/07/05 08:39:36;;;;;;;12.20;7.80;;;;;;;26.37;54.03;100527.92;106250;1291;67831;-87
2023/07/05 08:42:20;;;;;;;14.60;7.90;;;;;;;26.36;53.95;100522.88;106295;1291;67676;-87
2023/07/05 08:45:15;;;;;;;11.70;8.50;;;;;;;26.35;53.97;100521.82;106164;1291;67090;-87
2023/07/05 08:47:43;;;;;;;9.90;7.30;;;;;;;26.34;53.88;100518.89;106205;1291;74470;-87
2023/07/05 08:50:26;;;;;;;9.50;7.40;;;;;;;26.34;53.74;100519.27;106221;1285;67468;-87
2023/07/05 08:53:09;;;;;;;12.30;7.80;;;;;;;26.33;53.69;100521.19;106265;1289;67669;-92
2023/07/05 08:58:25;;;;;;;13.90;8.30;;;;;;;26.32;53.50;100520.60;106302;1288;67599;-87
2023/07/05 09:01:04;;;;;;;11.10;8.70;;;;;;;26.31;53.46;100517.57;106208;1289;74588;-87
2023/07/05 09:03:30;;;;;;;16.30;10.20;;;;;;;26.31;53.30;100513.30;106301;1288;67608;-87
2023/07/05 09:06:03;;;;;;;14.30;10.70;;;;;;;26.31;53.18;100509.16;106150;1288;67911;-87
2023/07/05 09:08:29;;;;;;;16.50;11.00;;;;;;;26.30;53.10;100504.27;106263;1290;67710;-86
2023/07/05 09:10:56;;;;;;;11.80;9.10;;;;;;;26.32;53.06;100503.62;106314;1289;67556;-88
2023/07/05 09:13:30;;;;;;;12.20;8.70;;;;;;;26.33;53.07;100503.15;106213;1291;67554;-87
2023/07/05 09:16:15;;;;;;;12.10;8.00;;;;;;;26.34;53.02;100501.58;106327;1288;67114;-87
2023/07/05 09:18:50;;;;;;;11.90;7.60;;;;;;;26.35;52.82;100500.63;106528;1289;67788;-87
2023/07/05 09:21:35;;;;;;;16.10;11.80;;;;;;;26.35;52.79;100500.14;106401;1291;67588;-88
2023/07/05 09:24:07;;;;;;;19.70;14.20;;;;;;;26.35;52.66;100494.74;106391;1291;67669;-87
2023/07/05 09:26:45;;;;;;;24.50;21.90;;;;;;;26.36;52.49;100493.88;106357;1288;74695;-88
2023/07/05 09:29:38;;;;;;;19.70;16.10;;;;;;;26.37;52.53;100487.20;106427;1289;67627;-88
2023/07/05 09:32:07;;;;;;;14.90;11.30;;;;;;;26.39;52.45;100479.79;106149;1292;67705;-88
2023/07/05 09:35:11;;;;;;;16.70;14.30;;;;;;;26.40;52.40;100484.46;106222;1288;67546;-88
2023/07/05 09:40:18;;;;;;;19.10;12.90;;;;;;;26.40;52.07;100468.98;106448;1288;72203;-88
2023/07/05 09:42:58;;;;;;;16.20;14.30;;;;;;;26.40;51.82;100467.21;106306;1288;67667;-88
2023/07/05 09:45:25;;;;;;;16.30;10.00;;;;;;;26.42;51.94;100461.25;106495;1288;67591;-87
2023/07/05 09:47:57;;;;;;;12.00;9.00;;;;;;;26.44;51.87;100457.91;106318;1288;67634;-87
2023/07/05 09:50:22;;;;;;;13.30;7.80;;;;;;;26.47;51.79;100457.03;106325;1288;67529;-88
2023/07/05 09:52:51;;;;;;;11.20;9.50;;;;;;;26.50;51.68;100448.96;106481;1288;67862;-88
2023/07/05 09:55:19;;;;;;;23.40;18.50;;;;;;;26.52;51.66;100449.41;106340;1288;67792;-87
2023/07/05 09:57:45;;;;;;;21.40;17.60;;;;;;;26.55;51.43;100443.45;106263;1288;67630;-88
2023/07/05 10:00:26;;;;;;;18.30;14.90;;;;;;;26.58;51.45;100439.59;106340;1288;67771;-88
2023/07/05 10:02:53;;;;;;;17.60;13.00;;;;;;;26.60;51.46;100436.50;106265;1290;67645;-88
2023/07/05 10:05:29;;;;;;;13.30;9.90;;;;;;;26.62;51.25;100435.15;106129;1290;74214;-87
2023/07/05 10:07:57;;;;;;;13.30;9.10;;;;;;;26.64;51.10;100434.68;106151;1291;67633;-88
2023/07/05 10:10:27;;;;;;;11.50;8.40;;;;;;;26.65;51.00;100438.74;106077;1291;67718;-88
2023/07/05 10:13:11;;;;;;;9.60;8.10;;;;;;;26.64;50.91;100432.00;106542;1288;67126;-87
2023/07/05 10:15:41;;;;;;;13.10;7.80;;;;;;;26.64;50.74;100428.39;106526;1288;67548;-88
2023/07/05 10:18:28;;;;;;;14.30;9.40;;;;;;;26.63;50.47;100428.20;106507;1288;74660;-87
2023/07/05 10:20:55;;;;;;;38.00;32.20;;;;;;;26.62;50.12;100422.97;106413;1288;67059;-87
2023/07/05 10:23:22;;;;;;;22.70;17.20;;;;;;;26.62;49.87;100422.81;106441;1288;67699;-87
2023/07/05 10:25:47;;;;;;;15.10;11.30;;;;;;;26.62;49.56;100419.60;106439;1288;67620;-88
2023/07/05 10:28:15;;;;;;;15.10;9.30;;;;;;;26.62;49.15;100416.62;106366;1288;67569;-87
2023/07/05 10:31:30;;;;;;;12.70;7.80;;;;;;;26.62;48.94;100416.13;106429;1288;74220;-88
2023/07/05 10:34:06;;;;;;;11.60;7.70;;;;;;;26.61;48.67;100415.77;106374;1288;68018;-87
2023/07/05 10:36:32;;;;;;;12.50;7.40;;;;;;;26.62;48.47;100411.46;106466;1288;67662;-87
2023/07/05 10:38:57;;;;;;;11.10;6.70;;;;;;;26.64;48.24;100412.77;106430;1291;67789;-87
2023/07/05 10:41:26;;;;;;;10.70;7.20;;;;;;;26.65;47.93;100409.34;106477;1289;67082;-87
2023/07/05 10:44:10;;;;;;;10.80;6.70;;;;;;;26.65;47.90;100407.29;106435;1288;67850;-88
2023/07/05 10:46:36;;;;;;;11.40;6.90;;;;;;;26.66;47.68;100402.27;106366;1289;67708;-88
2023/07/05 10:49:04;;;;;;;11.90;7.00;;;;;;;26.68;47.52;100402.44;106296;1288;67664;-87
2023/07/05 10:51:33;;;;;;;10.50;6.20;;;;;;;26.69;47.38;100401.23;106362;1288;68193;-87
2023/07/05 10:54:25;;;;;;;15.20;9.10;;;;;;;26.69;47.22;100397.88;106433;1289;66969;-88
2023/07/05 10:56:51;;;;;;;14.40;8.30;;;;;;;26.69;47.04;100399.11;106511;1287;74528;-87
2023/07/05 10:59:25;;;;;;;13.80;8.20;;;;;;;26.70;46.87;100398.07;106624;1288;67135;-87
2023/07/05 11:01:55;;;;;;;14.50;11.10;;;;;;;26.69;46.67;100395.64;106646;1287;67231;-87
2023/07/05 11:07:00;;;;;;;18.40;15.30;;;;;;;26.72;46.34;100388.20;106647;1288;67772;-88
2023/07/05 11:09:28;;;;;;;14.20;9.20;;;;;;;26.73;46.07;100386.51;106416;1288;73625;-87
2023/07/05 11:11:57;;;;;;;11.10;7.10;;;;;;;26.77;45.87;100379.91;106677;1286;67255;-87
2023/07/05 11:14:28;;;;;;;11.00;5.90;;;;;;;26.79;45.69;100370.48;106441;1288;67657;-87
2023/07/05 11:16:54;;;;;;;14.40;10.80;;;;;;;26.81;45.46;100371.42;106431;1287;67768;-87
2023/07/05 11:19:28;;;;;;;15.80;8.60;;;;;;;26.84;45.33;100375.00;106655;1286;67591;-93
2023/07/05 11:21:54;;;;;;;19.60;12.30;;;;;;;26.84;45.18;100370.16;106650;1288;75415;-87
2023/07/05 11:24:38;;;;;;;14.60;12.20;;;;;;;26.84;45.20;100368.30;106408;1287;67771;-88
2023/07/05 11:27:27;;;;;;;9.70;6.70;;;;;;;26.86;44.91;100369.08;106515;1286;67703;-87
2023/07/05 11:29:53;;;;;;;11.20;6.20;;;;;;;26.87;44.75;100372.14;106710;1286;67681;-88
2023/07/05 11:32:22;;;;;;;10.70;6.60;;;;;;;26.88;44.64;100374.05;106682;1286;67082;-87
2023/07/05 11:34:53;;;;;;;7.10;6.30;;;;;;;26.88;44.47;100368.92;106503;1288;74467;-87
2023/07/05 11:37:24;;;;;;;;;;;;;;;26.88;44.25;100364.13;106480;1288;67030;-92
2023/07/05 11:39:51;;;;;;;10.70;6.50;;;;;;;26.86;44.37;100358.39;106522;1288;67006;-87
2023/07/05 11:42:20;;;;;;;9.10;6.50;;;;;;;26.88;44.22;100351.02;106595;1288;67425;-88
2023/07/05 11:44:46;;;;;;;7.20;5.70;;;;;;;26.88;43.99;100351.33;106561;1288;67021;-86